Main page
METAR-TAF:

METAR-TAF

Airports :

Las Vegas, Nevada, United States

McCarran International Airport

latitude: 36-04-44N, longitude: 115-09-19W, elevation: 663 m

Current weather observation

The report was made 31 minutes ago, at 20:56 UTC
Wind 6 kt from variable directions
Temperature 33°C
Humidity 11%
Pressure 1016 hPa
Visibility: 16.1 km
Few clouds at a height of 11000 ft
Broken clouds at a height of 25000 ft

METAR: KLAS 222056Z VRB06KT 10SM FEW110 BKN250 33/M01 A3000 RMK AO2 SLP131 T03331011 58021

Time: 14:27 (21:27 UTC)

Forecast

The report was made 42 minutes ago, at 20:45 UTC
Forecast valid from 22 at 21 UTC to 23 at 18 UTC
Wind 7 kt from the East/Northeast
Visibility: 10 km
Broken clouds at a height of 25000 ft
From 23 at 0400 UTC
Wind 6 kt from the South/Southwest
Visibility: 10 km
Clear sky
From 23 at 1600 UTC
Wind 5 kt from the North/Northeast
Visibility: 10 km
Clear sky

TAF: KLAS 222045Z 2221/2318 06007KT P6SM BKN250 FM230400 21006KT P6SM SKC FM231600 03005KT P6SM SKC

Weather observations and forecasts of more than 4000 airports (METAR and TAF reports).

The available stations are represented by yellow and red dots on the map.

Hover mouse over dot to see the name of the station.

Then click to see weather observations and forecasts.

To change the map : click on the green buttons with a black cross to zoom in, on the green button with a dash to zoom out, or on the green arrows for adjacent maps.


METAR-TAF: